Time;durP1;ratioP1;P1;durP2;ratioP2;P2;SDS_P1;SDS_P2;PMS_P1;PMS_P2;Temp;Humidity;BMP_temperature;BMP_pressure;BME280_temperature;BME280_humidity;BME280_pressure;Samples;Min_cycle;Max_cycle;Signal;HPM_P1;HPM_P2
2022/12/24 00:01:10;;;;;;;1.20;1.07;;;10.50;99.90;;;;;;6178732;23;20408;-87
2022/12/24 00:03:38;;;;;;;1.27;0.93;;;10.80;99.90;;;;;;6180189;23;20495;-88
2022/12/24 00:06:05;;;;;;;1.30;0.80;;;10.90;99.90;;;;;;6179973;23;20426;-88
2022/12/24 00:08:41;;;;;;;1.83;1.00;;;10.90;99.90;;;;;;6182309;23;20416;-90
2022/12/24 00:11:08;;;;;;;1.27;1.10;;;10.80;99.90;;;;;;6179970;23;20415;-88
2022/12/24 00:13:35;;;;;;;1.63;1.10;;;10.80;99.90;;;;;;6179885;23;20483;-89
2022/12/24 00:16:05;;;;;;;3.43;1.00;;;10.80;99.90;;;;;;6179661;23;20491;-89
2022/12/24 00:18:32;;;;;;;1.27;1.17;;;10.80;99.90;;;;;;6179488;23;20490;-89
2022/12/24 00:21:00;;;;;;;2.03;1.20;;;10.90;99.90;;;;;;6179669;23;20399;-89
2022/12/24 00:23:30;;;;;;;1.20;1.00;;;10.80;99.90;;;;;;6179525;23;20514;-88
2022/12/24 00:25:57;;;;;;;2.73;1.30;;;10.80;99.90;;;;;;6179535;23;20422;-90
2022/12/24 00:28:24;;;;;;;1.87;0.93;;;10.80;99.90;;;;;;6179851;23;20443;-88
2022/12/24 00:30:51;;;;;;;1.43;1.10;;;10.70;99.90;;;;;;6179598;23;20438;-90
2022/12/24 00:33:20;;;;;;;0.90;0.80;;;10.80;99.90;;;;;;6180075;23;20401;-90
2022/12/24 00:35:52;;;;;;;1.70;1.20;;;10.70;99.90;;;;;;6179427;23;20423;-87
2022/12/24 00:38:18;;;;;;;1.30;1.10;;;10.70;99.90;;;;;;6179849;23;20498;-89
2022/12/24 00:40:45;;;;;;;1.10;1.00;;;10.70;99.90;;;;;;6179494;23;20483;-93
2022/12/24 00:43:12;;;;;;;2.60;0.97;;;10.70;99.90;;;;;;6179692;23;20491;-90
2022/12/24 00:45:39;;;;;;;4.27;1.17;;;10.70;99.90;;;;;;6179452;23;20471;-88
2022/12/24 00:48:08;;;;;;;1.10;1.00;;;10.60;99.90;;;;;;6180176;23;20515;-89
2022/12/24 00:50:42;;;;;;;1.00;0.90;;;10.70;99.90;;;;;;6180048;23;20400;-90
2022/12/24 00:53:09;;;;;;;1.50;1.07;;;10.60;99.90;;;;;;6179568;23;20495;-89
2022/12/24 00:55:36;;;;;;;2.20;1.00;;;10.70;99.90;;;;;;6179613;23;20432;-88
2022/12/24 00:58:04;;;;;;;1.17;1.00;;;10.80;99.90;;;;;;6180287;23;20408;-89
2022/12/24 01:00:31;;;;;;;4.53;1.13;;;10.70;99.90;;;;;;6180043;23;20739;-88
2022/12/24 01:02:58;;;;;;;1.10;0.93;;;10.70;99.90;;;;;;6179792;23;20440;-91
2022/12/24 01:05:29;;;;;;;1.10;1.00;;;10.80;99.90;;;;;;6180049;23;20906;-88
2022/12/24 01:07:57;;;;;;;1.20;1.10;;;10.70;99.90;;;;;;6179880;23;20466;-91
2022/12/24 01:10:24;;;;;;;2.37;1.20;;;10.70;99.90;;;;;;6180313;23;20961;-88
2022/12/24 01:12:51;;;;;;;1.23;0.90;;;10.70;99.90;;;;;;6180701;23;20445;-90
2022/12/24 01:15:18;;;;;;;1.87;0.83;;;10.70;99.90;;;;;;6182448;23;20495;-90
2022/12/24 01:17:47;;;;;;;1.70;0.87;;;10.70;99.90;;;;;;6182176;23;20439;-91
2022/12/24 01:20:16;;;;;;;1.87;1.10;;;10.70;99.90;;;;;;6182714;23;20435;-91
2022/12/24 01:22:43;;;;;;;1.60;1.10;;;10.60;99.90;;;;;;6183225;23;20962;-92
2022/12/24 01:25:12;;;;;;;1.30;1.00;;;10.60;99.90;;;;;;6182682;23;20725;-90
2022/12/24 01:27:39;;;;;;;1.80;1.10;;;10.50;99.90;;;;;;6182678;23;20435;-92
2022/12/24 01:30:08;;;;;;;1.17;1.07;;;10.60;99.90;;;;;;6182633;23;20450;-90
2022/12/24 01:32:43;;;;;;;1.73;1.13;;;10.50;99.90;;;;;;6181756;23;20422;-90
2022/12/24 01:35:11;;;;;;;3.57;1.23;;;10.60;99.90;;;;;;6189301;23;20411;-89
2022/12/24 01:37:38;;;;;;;2.37;1.73;;;10.50;99.90;;;;;;6183342;23;20423;-89
2022/12/24 01:48:34;;;;;;;1.90;1.00;;;10.50;99.90;;;;;;6182150;23;20607;-91
2022/12/24 01:51:05;;;;;;;1.13;1.00;;;10.60;99.90;;;;;;6182146;23;20427;-91
2022/12/24 01:53:33;;;;;;;2.20;1.43;;;10.50;99.90;;;;;;6182271;23;20416;-90
2022/12/24 01:56:06;;;;;;;1.57;1.10;;;10.60;99.90;;;;;;6181755;23;20914;-89
2022/12/24 01:58:36;;;;;;;1.47;1.07;;;10.50;99.90;;;;;;6183426;23;20430;-88
2022/12/24 02:01:06;;;;;;;2.30;1.03;;;10.60;99.90;;;;;;6184795;23;20516;-90
2022/12/24 02:03:33;;;;;;;1.53;1.30;;;10.80;99.90;;;;;;6181840;23;20930;-91
2022/12/24 02:06:00;;;;;;;1.50;1.00;;;10.70;99.90;;;;;;6181855;23;20750;-91
2022/12/24 02:08:38;;;;;;;1.30;1.00;;;10.60;99.90;;;;;;6181598;23;20419;-88
2022/12/24 02:11:11;;;;;;;1.43;1.10;;;10.70;99.90;;;;;;6181558;23;21044;-89
2022/12/24 02:13:39;;;;;;;2.27;1.57;;;10.70;99.90;;;;;;6181598;23;20473;-91
2022/12/24 02:16:21;;;;;;;1.77;1.33;;;10.70;99.90;;;;;;6181079;23;20419;-92
2022/12/24 02:18:59;;;;;;;1.53;1.10;;;10.60;99.90;;;;;;6181153;23;20704;-88
2022/12/24 02:21:48;;;;;;;1.67;1.00;;;10.60;99.90;;;;;;6181720;23;20438;-89
2022/12/24 02:24:52;;;;;;;2.90;1.13;;;10.70;99.90;;;;;;6180796;23;20500;-90
2022/12/24 02:27:29;;;;;;;1.40;1.10;;;10.70;99.90;;;;;;6181035;23;20419;-91
2022/12/24 02:30:06;;;;;;;1.40;1.30;;;10.70;99.90;;;;;;6181863;23;20399;-90
2022/12/24 02:32:46;;;;;;;2.23;1.23;;;10.60;99.90;;;;;;6181305;23;20440;-88
2022/12/24 02:35:19;;;;;;;1.57;1.33;;;10.60;99.90;;;;;;6181451;23;20506;-91
2022/12/24 02:37:51;;;;;;;1.43;1.30;;;10.70;99.90;;;;;;6181512;23;20700;-90
2022/12/24 02:40:22;;;;;;;2.23;1.00;;;10.60;99.90;;;;;;6181034;23;20786;-90
2022/12/24 02:42:53;;;;;;;2.00;1.07;;;10.60;99.90;;;;;;6181074;23;20507;-89
2022/12/24 02:45:26;;;;;;;2.30;0.90;;;10.60;99.90;;;;;;6181228;23;20819;-92
2022/12/24 02:47:54;;;;;;;2.43;1.20;;;10.60;99.90;;;;;;6181107;23;20886;-92
2022/12/24 02:50:22;;;;;;;2.97;1.20;;;10.50;99.90;;;;;;6182583;23;20811;-90
2022/12/24 02:52:49;;;;;;;3.20;1.47;;;10.50;99.90;;;;;;6191147;23;20412;-90
2022/12/24 02:55:21;;;;;;;1.20;1.10;;;10.50;99.90;;;;;;6181422;23;20411;-90
2022/12/24 02:58:08;;;;;;;2.03;1.00;;;10.60;99.90;;;;;;6182131;23;20609;-91
2022/12/24 03:00:46;;;;;;;1.63;1.10;;;10.60;99.90;;;;;;6181457;23;20467;-91
2022/12/24 03:03:41;;;;;;;2.57;1.10;;;10.60;99.90;;;;;;6181133;23;20497;-91
2022/12/24 03:06:15;;;;;;;1.50;1.23;;;10.70;99.90;;;;;;6181161;23;20470;-92
2022/12/24 03:08:49;;;;;;;1.60;1.10;;;10.60;99.90;;;;;;6181143;23;20498;-91
2022/12/24 03:11:16;;;;;;;1.70;1.10;;;10.60;99.90;;;;;;6181231;23;20413;-91
2022/12/24 03:13:45;;;;;;;2.30;1.10;;;10.60;99.90;;;;;;6181049;23;20476;-89
2022/12/24 03:16:16;;;;;;;2.33;1.13;;;10.70;99.90;;;;;;6181263;23;20440;-93
2022/12/24 03:18:45;;;;;;;1.80;1.40;;;10.50;99.90;;;;;;6181309;23;20409;-89
2022/12/24 03:21:20;;;;;;;1.87;1.00;;;10.50;99.90;;;;;;6180719;23;20450;-88
2022/12/24 03:23:48;;;;;;;2.67;1.20;;;10.50;99.90;;;;;;6180807;23;20908;-90
2022/12/24 03:26:21;;;;;;;1.47;1.37;;;10.40;99.90;;;;;;6181249;23;20804;-90
2022/12/24 03:28:48;;;;;;;1.40;1.10;;;10.50;99.90;;;;;;6180628;23;20411;-88
2022/12/24 03:31:18;;;;;;;3.00;1.40;;;10.40;99.90;;;;;;6180708;23;20514;-89
2022/12/24 03:33:45;;;;;;;1.50;1.27;;;10.40;99.90;;;;;;6180805;23;20757;-88
2022/12/24 03:36:15;;;;;;;1.67;1.20;;;10.40;99.90;;;;;;6180589;23;20405;-91
2022/12/24 03:38:42;;;;;;;2.97;1.30;;;10.50;99.90;;;;;;6180088;23;20426;-91
2022/12/24 03:41:09;;;;;;;1.67;1.30;;;10.50;99.90;;;;;;6180262;23;20703;-90
2022/12/24 03:43:36;;;;;;;1.70;1.20;;;10.40;99.90;;;;;;6180074;23;20436;-90
2022/12/24 03:46:06;;;;;;;5.13;1.50;;;10.40;99.90;;;;;;6179938;23;20475;-90
2022/12/24 03:48:41;;;;;;;3.00;1.37;;;10.50;99.90;;;;;;6179732;23;20644;-90
2022/12/24 03:51:17;;;;;;;1.27;1.00;;;10.50;99.90;;;;;;6180364;23;20466;-91
2022/12/24 03:53:44;;;;;;;1.80;1.30;;;10.40;99.90;;;;;;6180399;23;20494;-93
2022/12/24 03:56:11;;;;;;;1.20;1.00;;;10.40;99.90;;;;;;6180144;23;20446;-89
2022/12/24 03:58:38;;;;;;;1.10;1.00;;;10.40;99.90;;;;;;6179998;23;20754;-92
2022/12/24 04:01:06;;;;;;;1.30;1.20;;;10.40;99.90;;;;;;6179882;23;20526;-90
2022/12/24 04:03:35;;;;;;;2.00;1.33;;;10.40;99.90;;;;;;6180555;23;20584;-91
2022/12/24 04:06:03;;;;;;;2.60;1.03;;;10.40;99.90;;;;;;6180564;23;20443;-88
2022/12/24 04:08:30;;;;;;;2.63;1.40;;;10.30;99.90;;;;;;6180467;23;20499;-89
2022/12/24 04:10:59;;;;;;;1.40;1.27;;;10.30;99.90;;;;;;6180757;23;20439;-91
2022/12/24 04:13:26;;;;;;;2.03;1.13;;;10.30;99.90;;;;;;6182197;23;20442;-93
2022/12/24 04:15:58;;;;;;;2.13;1.23;;;10.30;99.90;;;;;;6181494;23;20445;-90
2022/12/24 04:18:25;;;;;;;1.90;1.30;;;10.30;99.90;;;;;;6181537;23;20507;-90
2022/12/24 04:20:54;;;;;;;1.63;1.00;;;10.30;99.90;;;;;;6181023;23;20518;-90
2022/12/24 04:23:22;;;;;;;1.50;1.20;;;10.30;99.90;;;;;;6180803;23;20807;-90
2022/12/24 04:25:49;;;;;;;1.20;1.00;;;10.30;99.90;;;;;;6181156;23;20893;-91
2022/12/24 04:28:17;;;;;;;1.80;1.00;;;10.40;99.90;;;;;;6188840;23;20408;-93
2022/12/24 04:30:44;;;;;;;1.10;1.00;;;10.40;99.90;;;;;;6196187;23;20405;-91
2022/12/24 04:33:11;;;;;;;2.10;0.90;;;10.40;99.90;;;;;;6188822;23;20411;-90
2022/12/24 04:35:40;;;;;;;1.77;1.60;;;10.40;99.90;;;;;;6188720;23;20436;-90
2022/12/24 04:38:09;;;;;;;1.33;1.00;;;10.30;99.90;;;;;;6189558;23;20489;-87
2022/12/24 04:40:36;;;;;;;1.70;1.53;;;10.30;99.90;;;;;;6186570;23;20456;-87
2022/12/24 04:43:05;;;;;;;1.30;1.00;;;10.30;99.90;;;;;;6179371;23;20412;-86
2022/12/24 04:45:32;;;;;;;1.20;1.10;;;10.40;99.90;;;;;;6179962;23;21158;-89
2022/12/24 04:48:05;;;;;;;1.53;1.43;;;10.40;99.90;;;;;;6179479;23;20447;-86
2022/12/24 04:50:32;;;;;;;2.53;1.50;;;10.30;99.90;;;;;;6181140;23;20416;-87
2022/12/24 04:52:59;;;;;;;1.10;1.00;;;10.30;99.90;;;;;;6182715;23;20442;-86
2022/12/24 04:55:27;;;;;;;1.00;0.90;;;10.30;99.90;;;;;;6181536;23;20396;-86
2022/12/24 04:57:54;;;;;;;3.00;1.23;;;10.30;99.90;;;;;;6181263;23;20810;-84
2022/12/24 05:00:22;;;;;;;1.50;1.27;;;10.40;99.90;;;;;;6181331;23;20777;-87
2022/12/24 05:02:49;;;;;;;1.23;0.80;;;10.40;99.90;;;;;;6181498;23;20973;-87
2022/12/24 05:05:16;;;;;;;1.40;1.20;;;10.30;99.90;;;;;;6181997;23;20424;-90
2022/12/24 05:07:46;;;;;;;3.53;1.10;;;10.30;99.90;;;;;;6181377;23;20423;-92
2022/12/24 05:10:13;;;;;;;3.13;1.57;;;10.40;99.90;;;;;;6181615;23;20779;-88
2022/12/24 05:12:41;;;;;;;1.83;1.37;;;10.40;99.90;;;;;;6181415;23;20438;-86
2022/12/24 05:15:09;;;;;;;4.00;1.40;;;10.50;99.90;;;;;;6183027;23;20428;-91
2022/12/24 05:17:36;;;;;;;1.10;1.00;;;10.50;99.90;;;;;;6185589;23;20779;-90
2022/12/24 05:20:05;;;;;;;2.37;1.20;;;10.30;99.90;;;;;;6182707;23;20416;-90
2022/12/24 05:28:07;;;;;;;3.40;1.40;;;10.30;99.90;;;;;;6129673;23;20413;-91
2022/12/24 05:30:36;;;;;;;1.10;1.00;;;11.00;99.90;;;;;;6182449;23;20428;-91
2022/12/24 05:33:03;;;;;;;1.53;1.00;;;10.40;99.90;;;;;;6186104;23;20735;-75
2022/12/24 05:35:29;;;;;;;1.67;1.00;;;10.30;99.90;;;;;;6181191;23;20401;-78
2022/12/24 05:37:58;;;;;;;2.43;1.23;;;10.20;99.90;;;;;;6180386;23;20741;-85
2022/12/24 05:40:33;;;;;;;1.17;0.97;;;10.30;99.90;;;;;;6180248;23;20790;-88
2022/12/24 05:42:59;;;;;;;2.33;1.20;;;10.20;99.90;;;;;;6181930;23;20806;-89
2022/12/24 05:45:28;;;;;;;1.73;0.93;;;10.20;99.90;;;;;;6181898;23;20483;-88
2022/12/24 05:47:55;;;;;;;1.83;1.10;;;10.20;99.90;;;;;;6181580;23;20642;-93
2022/12/24 05:50:27;;;;;;;2.33;1.07;;;10.20;99.90;;;;;;6181273;23;20699;-86
2022/12/24 05:52:54;;;;;;;1.83;1.10;;;10.20;99.90;;;;;;6181418;23;20395;-91
2022/12/24 05:55:21;;;;;;;2.10;0.90;;;10.20;99.90;;;;;;6181368;23;20495;-91
2022/12/24 05:57:48;;;;;;;2.90;1.20;;;10.20;99.90;;;;;;6182386;23;20483;-90
2022/12/24 06:00:15;;;;;;;3.07;1.30;;;10.20;99.90;;;;;;6183130;23;20483;-92
2022/12/24 06:02:46;;;;;;;1.50;1.30;;;10.10;99.90;;;;;;6181649;23;20447;-92
2022/12/24 06:05:12;;;;;;;2.30;1.37;;;10.10;99.90;;;;;;6183557;23;20824;-93
2022/12/24 06:07:40;;;;;;;2.43;1.33;;;10.10;99.90;;;;;;6183329;23;20417;-92
2022/12/24 06:10:08;;;;;;;1.40;1.13;;;10.20;99.90;;;;;;6184762;23;20438;-90
2022/12/24 06:12:35;;;;;;;2.33;1.30;;;10.20;99.90;;;;;;6182919;23;20503;-92
2022/12/24 06:15:02;;;;;;;2.27;1.40;;;10.30;99.90;;;;;;6184345;23;20403;-92
2022/12/24 06:17:31;;;;;;;1.10;1.00;;;10.40;99.90;;;;;;6181861;23;21016;-91
2022/12/24 06:19:59;;;;;;;1.97;1.30;;;10.40;99.90;;;;;;6182056;23;20966;-92
2022/12/24 06:22:26;;;;;;;3.00;1.30;;;10.70;99.90;;;;;;6181470;23;20784;-89
2022/12/24 06:24:53;;;;;;;2.20;1.20;;;10.20;99.90;;;;;;6181999;23;20491;-92
2022/12/24 06:27:20;;;;;;;1.10;1.00;;;10.10;99.90;;;;;;6183565;23;20961;-90
2022/12/24 06:32:27;;;;;;;1.20;0.93;;;10.00;99.90;;;;;;6179998;23;20408;-85
2022/12/24 06:34:54;;;;;;;1.60;1.00;;;10.00;99.90;;;;;;6180190;23;20397;-82
2022/12/24 06:37:22;;;;;;;2.23;1.30;;;9.90;99.90;;;;;;6179732;23;20396;-88
2022/12/24 06:39:49;;;;;;;1.77;1.23;;;9.90;99.90;;;;;;6183255;23;20476;-80
2022/12/24 06:42:20;;;;;;;1.20;1.10;;;9.90;99.90;;;;;;6185482;23;20435;-89
2022/12/24 06:44:47;;;;;;;1.50;1.03;;;9.80;99.90;;;;;;6186273;23;20925;-86
2022/12/24 06:47:14;;;;;;;2.70;1.20;;;9.90;99.90;;;;;;6182999;23;20506;-90
2022/12/24 06:49:41;;;;;;;1.27;0.93;;;9.90;99.90;;;;;;6184751;23;20450;-89
2022/12/24 06:52:08;;;;;;;1.13;1.03;;;9.90;99.90;;;;;;6191164;23;20595;-91
2022/12/24 06:54:42;;;;;;;1.53;0.80;;;10.00;99.90;;;;;;6190671;23;20499;-92
2022/12/24 06:57:10;;;;;;;1.60;1.00;;;9.90;99.90;;;;;;6186401;23;20415;-94
2022/12/24 06:59:37;;;;;;;1.90;1.07;;;9.80;99.90;;;;;;6190318;23;20420;-92
2022/12/24 07:02:04;;;;;;;0.97;0.80;;;9.10;99.90;;;;;;6188695;23;20468;-90
2022/12/24 07:04:31;;;;;;;1.40;0.93;;;9.80;99.90;;;;;;6185055;23;20495;-91
2022/12/24 07:06:57;;;;;;;1.30;0.80;;;9.80;99.90;;;;;;6186800;23;20412;-90
2022/12/24 07:09:24;;;;;;;2.43;1.10;;;9.80;99.90;;;;;;6197796;23;20412;-90
2022/12/24 07:11:53;;;;;;;1.70;1.47;;;9.80;99.90;;;;;;6197135;23;20417;-92
2022/12/24 07:14:19;;;;;;;1.33;0.97;;;9.80;99.90;;;;;;6189042;23;20423;-89
2022/12/24 07:16:46;;;;;;;1.20;1.10;;;9.80;99.90;;;;;;6192087;23;20416;-88
2022/12/24 07:19:14;;;;;;;2.03;1.10;;;9.70;99.90;;;;;;6183405;23;20415;-88
2022/12/24 07:21:41;;;;;;;1.40;0.97;;;9.70;99.90;;;;;;6181598;23;20443;-89
2022/12/24 07:24:08;;;;;;;1.00;0.90;;;9.70;99.90;;;;;;6204683;23;20416;-90
2022/12/24 07:26:35;;;;;;;1.00;0.80;;;9.60;99.90;;;;;;6194366;23;20400;-74
2022/12/24 07:29:09;;;;;;;1.50;1.20;;;9.50;99.90;;;;;;6186055;23;20989;-83
2022/12/24 07:31:35;;;;;;;1.00;0.80;;;9.50;99.90;;;;;;6183080;23;20770;-81
2022/12/24 07:34:02;;;;;;;1.30;0.90;;;9.50;99.90;;;;;;6179030;23;20442;-88
2022/12/24 07:36:29;;;;;;;1.67;0.90;;;9.50;99.90;;;;;;6179189;23;20499;-83
2022/12/24 07:38:56;;;;;;;1.03;0.70;;;9.50;99.90;;;;;;6178830;23;20474;-80
2022/12/24 07:41:25;;;;;;;1.20;1.07;;;9.50;99.90;;;;;;6178712;23;20443;-83
2022/12/24 07:43:52;;;;;;;1.10;1.00;;;9.40;99.90;;;;;;6178804;23;20399;-77
2022/12/24 07:46:20;;;;;;;2.30;1.00;;;9.40;99.90;;;;;;6179273;23;20405;-79
2022/12/24 07:48:47;;;;;;;6.63;1.13;;;9.40;99.90;;;;;;6178774;23;20432;-79
2022/12/24 07:51:18;;;;;;;1.13;0.80;;;9.30;99.90;;;;;;6178930;23;20615;-81
2022/12/24 07:53:46;;;;;;;1.07;0.97;;;9.30;99.90;;;;;;6179060;23;20511;-80
2022/12/24 07:56:14;;;;;;;1.60;1.00;;;9.30;99.90;;;;;;6178935;23;20483;-80
2022/12/24 07:58:41;;;;;;;1.43;1.13;;;9.30;99.90;;;;;;6179844;23;20754;-83
2022/12/24 08:01:10;;;;;;;0.90;0.80;;;9.30;99.90;;;;;;6179528;23;20451;-87
2022/12/24 08:03:39;;;;;;;1.07;0.93;;;9.20;99.90;;;;;;6178927;23;20408;-83
2022/12/24 08:06:06;;;;;;;2.90;1.20;;;9.50;99.90;;;;;;6179294;23;20422;-82
2022/12/24 08:08:33;;;;;;;6.93;1.10;;;9.40;99.90;;;;;;6179791;23;20397;-84
2022/12/24 08:11:03;;;;;;;1.67;1.00;;;9.40;99.90;;;;;;6178761;23;20470;-84
2022/12/24 08:13:31;;;;;;;1.60;1.20;;;9.40;99.90;;;;;;6179642;23;20400;-82
2022/12/24 08:15:58;;;;;;;2.17;1.00;;;9.40;99.90;;;;;;6179059;23;20392;-81
2022/12/24 08:18:25;;;;;;;1.77;1.40;;;9.50;99.90;;;;;;6179591;23;20780;-79
2022/12/24 08:20:55;;;;;;;1.90;0.90;;;9.30;99.90;;;;;;6179314;23;20435;-81
2022/12/24 08:23:23;;;;;;;1.20;1.10;;;9.40;99.90;;;;;;6179068;23;20816;-82
2022/12/24 08:25:50;;;;;;;1.40;0.90;;;9.40;99.90;;;;;;6182555;23;20419;-89
2022/12/24 08:28:19;;;;;;;1.10;0.80;;;9.50;99.90;;;;;;6188497;23;20422;-86
2022/12/24 08:30:47;;;;;;;1.90;1.20;;;9.50;99.90;;;;;;6182696;23;20870;-72
2022/12/24 08:33:21;;;;;;;2.20;1.20;;;9.40;99.90;;;;;;6193080;23;20426;-87
2022/12/24 08:35:48;;;;;;;1.00;0.90;;;9.40;99.90;;;;;;6185788;23;20420;-85
2022/12/24 08:38:17;;;;;;;2.10;1.00;;;9.40;99.90;;;;;;6184163;23;20400;-86
2022/12/24 08:40:46;;;;;;;1.77;1.00;;;9.40;99.90;;;;;;6187662;23;20439;-82
2022/12/24 08:43:20;;;;;;;1.30;0.97;;;9.40;99.90;;;;;;6193112;23;20447;-88
2022/12/24 08:45:48;;;;;;;1.70;1.00;;;9.40;99.90;;;;;;6200511;23;20412;-83
2022/12/24 08:48:15;;;;;;;2.33;1.20;;;9.50;99.90;;;;;;6195317;23;20464;-80
2022/12/24 08:50:43;;;;;;;2.50;1.10;;;9.40;99.90;;;;;;6202819;23;20870;-87
2022/12/24 08:53:16;;;;;;;6.10;2.17;;;9.50;99.90;;;;;;6207652;23;20412;-84
2022/12/24 08:55:45;;;;;;;2.43;1.60;;;9.50;99.90;;;;;;6208093;23;20407;-89
2022/12/24 08:58:12;;;;;;;0.90;0.70;;;9.50;99.90;;;;;;6205589;23;20415;-84
2022/12/24 09:00:39;;;;;;;0.97;0.80;;;9.60;99.90;;;;;;6205201;23;20420;-88
2022/12/24 09:03:05;;;;;;;2.93;1.17;;;9.60;99.90;;;;;;6204554;23;20431;-85
2022/12/24 09:05:41;;;;;;;1.03;0.93;;;9.50;99.90;;;;;;6190449;23;20503;-88
2022/12/24 09:10:50;;;;;;;1.37;0.90;;;9.60;99.90;;;;;;6190575;23;20432;-88
2022/12/24 09:13:17;;;;;;;1.33;1.10;;;9.60;99.90;;;;;;6196892;23;20392;-90
2022/12/24 09:15:53;;;;;;;1.73;1.10;;;9.80;99.90;;;;;;6190233;23;20392;-83
2022/12/24 09:18:25;;;;;;;1.23;0.90;;;9.60;99.90;;;;;;6191445;23;20463;-88
2022/12/24 09:20:58;;;;;;;3.43;1.00;;;9.70;99.90;;;;;;6185135;23;20399;-84
2022/12/24 09:23:25;;;;;;;1.30;1.00;;;9.70;99.90;;;;;;6186965;23;20494;-92
2022/12/24 09:25:53;;;;;;;1.00;0.90;;;9.60;99.90;;;;;;6185356;23;20470;-86
2022/12/24 09:28:20;;;;;;;3.20;0.97;;;9.60;99.90;;;;;;6184884;23;20462;-88
2022/12/24 09:30:56;;;;;;;3.37;1.47;;;9.60;99.90;;;;;;6182809;23;20396;-87
2022/12/24 09:33:26;;;;;;;2.33;1.20;;;9.70;99.90;;;;;;6183002;23;20414;-85
2022/12/24 09:35:53;;;;;;;1.87;1.23;;;9.60;99.90;;;;;;6183248;23;20407;-88
2022/12/24 09:38:21;;;;;;;5.07;1.20;;;9.50;99.90;;;;;;6183489;23;20463;-90
2022/12/24 09:40:49;;;;;;;1.97;1.10;;;9.70;99.90;;;;;;6183387;23;20397;-89
2022/12/24 09:43:19;;;;;;;3.87;1.37;;;9.60;99.90;;;;;;6184071;23;20443;-89
2022/12/24 09:45:53;;;;;;;2.03;1.10;;;9.70;99.90;;;;;;6185040;23;20443;-88
2022/12/24 09:48:25;;;;;;;7.10;1.40;;;9.50;99.90;;;;;;6184368;23;20493;-88
2022/12/24 09:50:55;;;;;;;3.53;1.27;;;9.50;99.90;;;;;;6184983;23;20420;-89
2022/12/24 09:53:27;;;;;;;1.90;1.10;;;9.70;99.90;;;;;;6185059;23;20392;-89
2022/12/24 09:55:57;;;;;;;2.03;1.33;;;9.60;99.90;;;;;;6183324;23;20448;-87
2022/12/24 09:58:33;;;;;;;3.73;1.03;;;9.70;99.90;;;;;;6183547;23;20396;-88
2022/12/24 10:01:00;;;;;;;1.40;0.80;;;9.60;99.90;;;;;;6182576;23;20833;-88
2022/12/24 10:03:28;;;;;;;1.67;1.40;;;9.50;99.90;;;;;;6182105;23;20440;-88
2022/12/24 10:06:06;;;;;;;3.27;1.10;;;9.60;99.90;;;;;;6182071;23;20412;-89
2022/12/24 10:08:41;;;;;;;1.37;1.00;;;9.70;99.90;;;;;;6181195;23;20442;-86
2022/12/24 10:11:16;;;;;;;1.40;1.10;;;9.60;99.90;;;;;;6181655;23;20423;-88
2022/12/24 10:14:00;;;;;;;1.17;1.07;;;9.60;99.90;;;;;;6181330;23;20420;-87
2022/12/24 10:16:35;;;;;;;1.33;1.20;;;9.70;99.90;;;;;;6181607;23;20905;-86
2022/12/24 10:19:10;;;;;;;1.63;0.93;;;9.70;99.90;;;;;;6181881;23;20411;-88
2022/12/24 10:21:45;;;;;;;2.70;1.10;;;9.70;99.90;;;;;;6181747;23;20423;-86
2022/12/24 10:24:19;;;;;;;1.37;0.93;;;9.70;99.90;;;;;;6181303;23;20446;-86
2022/12/24 10:26:51;;;;;;;1.30;1.00;;;10.00;99.90;;;;;;6181192;23;20412;-86
2022/12/24 10:29:24;;;;;;;1.10;1.00;;;9.90;99.90;;;;;;6181276;23;20447;-88
2022/12/24 10:31:56;;;;;;;1.03;0.93;;;9.70;99.90;;;;;;6183084;23;20416;-90
2022/12/24 10:34:28;;;;;;;4.30;2.07;;;9.80;99.90;;;;;;6193668;23;20435;-87
2022/12/24 10:37:03;;;;;;;1.57;1.00;;;9.90;99.90;;;;;;6183701;23;20406;-89
2022/12/24 10:39:36;;;;;;;1.30;1.03;;;9.90;99.90;;;;;;6181721;23;20435;-88
2022/12/24 10:42:07;;;;;;;2.00;1.20;;;9.70;99.90;;;;;;6181055;23;20810;-85
2022/12/24 10:44:54;;;;;;;3.90;1.00;;;9.80;99.90;;;;;;6180532;23;20475;-82
2022/12/24 10:47:23;;;;;;;2.13;1.37;;;9.70;99.90;;;;;;6175029;23;20388;-80
2022/12/24 10:50:00;;;;;;;2.10;1.27;;;9.70;99.90;;;;;;6174125;23;20511;-84
2022/12/24 10:52:32;;;;;;;1.67;1.27;;;9.80;99.90;;;;;;6176685;23;20933;-91
2022/12/24 10:55:11;;;;;;;2.50;1.20;;;9.70;99.90;;;;;;6178556;23;20419;-85
2022/12/24 10:57:40;;;;;;;1.30;1.10;;;9.60;99.90;;;;;;6177914;23;20817;-88
2022/12/24 11:00:21;;;;;;;4.30;1.30;;;9.70;99.90;;;;;;6178949;23;20420;-91
2022/12/24 11:02:49;;;;;;;5.73;1.40;;;9.70;99.90;;;;;;6178413;23;20443;-88
2022/12/24 11:05:29;;;;;;;1.73;1.20;;;9.80;99.90;;;;;;6177813;23;20972;-89
2022/12/24 11:08:01;;;;;;;2.17;1.30;;;9.80;99.90;;;;;;6177126;23;20836;-86
2022/12/24 11:10:28;;;;;;;1.20;1.10;;;9.80;99.90;;;;;;6174950;23;20440;-86
2022/12/24 11:12:55;;;;;;;3.10;1.20;;;9.90;99.90;;;;;;6177052;23;20681;-93
2022/12/24 11:15:26;;;;;;;3.43;1.30;;;9.90;99.90;;;;;;6176505;23;21066;-86
2022/12/24 11:17:54;;;;;;;0.97;0.77;;;10.00;99.90;;;;;;6176016;23;20781;-89
2022/12/24 11:20:26;;;;;;;4.00;1.70;;;10.20;99.90;;;;;;6174745;23;20503;-87
2022/12/24 11:22:53;;;;;;;2.77;1.40;;;10.20;99.90;;;;;;6174667;23;20428;-86
2022/12/24 11:25:30;;;;;;;1.40;1.00;;;10.40;99.90;;;;;;6175898;23;20458;-87
2022/12/24 11:28:10;;;;;;;1.13;0.83;;;10.40;99.90;;;;;;6175352;23;20506;-87
2022/12/24 11:30:38;;;;;;;1.20;1.10;;;10.40;99.90;;;;;;6175689;23;20672;-89
2022/12/24 11:33:21;;;;;;;1.80;1.30;;;10.40;99.90;;;;;;6174723;23;20422;-86
2022/12/24 11:35:54;;;;;;;2.70;1.20;;;10.60;99.90;;;;;;6174996;23;20450;-87
2022/12/24 11:38:24;;;;;;;1.87;0.80;;;11.20;99.90;;;;;;6173814;23;20941;-84
2022/12/24 11:40:59;;;;;;;2.90;1.10;;;11.40;99.90;;;;;;6173674;23;20420;-86
2022/12/24 11:43:43;;;;;;;2.90;1.30;;;10.90;99.90;;;;;;6175182;23;20431;-86
2022/12/24 11:46:35;;;;;;;8.20;1.17;;;10.60;99.90;;;;;;6175216;23;20411;-88
2022/12/24 11:49:16;;;;;;;1.03;0.93;;;10.30;99.90;;;;;;6174906;23;20475;-89
2022/12/24 11:52:16;;;;;;;1.47;1.27;;;10.40;99.90;;;;;;6174230;23;20393;-85
2022/12/24 11:54:50;;;;;;;1.23;1.13;;;10.80;99.90;;;;;;6174747;23;20395;-86
2022/12/24 11:57:26;;;;;;;2.37;1.50;;;10.60;99.90;;;;;;6174652;23;20392;-88
2022/12/24 11:59:53;;;;;;;1.00;0.90;;;10.40;99.90;;;;;;6174505;23;20593;-86
2022/12/24 12:02:26;;;;;;;3.63;1.10;;;10.70;99.90;;;;;;6174201;23;20742;-90
2022/12/24 12:04:58;;;;;;;2.70;1.20;;;10.30;99.90;;;;;;6174710;23;20478;-85
2022/12/24 12:07:27;;;;;;;2.63;1.30;;;10.30;99.90;;;;;;6175433;23;20443;-83
2022/12/24 12:10:00;;;;;;;1.33;0.90;;;10.10;99.90;;;;;;6174490;23;20452;-80
2022/12/24 12:12:30;;;;;;;1.60;1.00;;;10.10;99.90;;;;;;6174864;23;20913;-79
2022/12/24 12:15:01;;;;;;;2.40;1.10;;;10.20;99.90;;;;;;6173433;23;20439;-78
2022/12/24 12:17:36;;;;;;;1.87;1.00;;;10.00;99.90;;;;;;6173886;23;20471;-76
2022/12/24 12:20:07;;;;;;;5.00;1.53;;;10.20;99.90;;;;;;6172719;23;20476;-76
2022/12/24 12:22:45;;;;;;;1.93;1.20;;;10.20;99.90;;;;;;6174114;23;20444;-77
2022/12/24 12:25:22;;;;;;;3.33;1.20;;;10.30;99.90;;;;;;6173690;23;20908;-76
2022/12/24 12:27:53;;;;;;;4.27;1.60;;;10.40;99.90;;;;;;6174296;23;20814;-76
2022/12/24 12:30:23;;;;;;;2.90;1.73;;;10.40;99.90;;;;;;6173808;23;20392;-76
2022/12/24 12:32:58;;;;;;;1.57;1.10;;;10.40;99.90;;;;;;6173238;23;20416;-76
2022/12/24 12:35:31;;;;;;;4.97;1.50;;;10.40;99.90;;;;;;6174116;23;20789;-78
2022/12/24 12:38:01;;;;;;;1.40;1.20;;;10.30;99.90;;;;;;6173466;23;20405;-78
2022/12/24 12:40:52;;;;;;;3.10;1.67;;;10.70;99.90;;;;;;6173964;23;20780;-77
2022/12/24 12:43:35;;;;;;;4.50;1.10;;;10.40;99.90;;;;;;6174723;23;20440;-81
2022/12/24 12:46:14;;;;;;;1.73;1.10;;;10.40;99.90;;;;;;6174643;23;20808;-80
2022/12/24 12:49:05;;;;;;;2.60;1.17;;;10.40;99.90;;;;;;6173933;23;20480;-77
2022/12/24 12:51:40;;;;;;;3.13;1.40;;;10.80;99.90;;;;;;6174790;23;20465;-76
2022/12/24 12:54:25;;;;;;;1.17;1.07;;;11.10;99.90;;;;;;6174282;23;20553;-78
2022/12/24 12:56:54;;;;;;;1.60;1.40;;;10.50;99.90;;;;;;6174552;23;20415;-78
2022/12/24 12:59:35;;;;;;;2.40;1.00;;;10.50;99.90;;;;;;6174378;23;20799;-78
2022/12/24 13:02:27;;;;;;;1.73;1.00;;;10.50;99.90;;;;;;6174881;23;20395;-81
2022/12/24 13:05:25;;;;;;;6.87;1.67;;;10.50;99.90;;;;;;6174345;23;20421;-79
2022/12/24 13:08:11;;;;;;;3.17;1.70;;;10.20;99.90;;;;;;6174419;23;20397;-68
2022/12/24 13:10:56;;;;;;;2.43;1.20;;;10.40;99.90;;;;;;6176772;23;20428;-75
2022/12/24 13:13:55;;;;;;;2.70;1.20;;;10.30;99.90;;;;;;6175626;23;20880;-79
2022/12/24 13:17:04;;;;;;;3.07;1.30;;;10.40;99.90;;;;;;6176327;23;20870;-79
2022/12/24 13:19:48;;;;;;;3.17;1.47;;;10.40;99.90;;;;;;6175759;23;20380;-74
2022/12/24 13:22:18;;;;;;;2.33;1.13;;;10.20;99.90;;;;;;6176003;23;20403;-77
2022/12/24 13:24:49;;;;;;;2.33;1.03;;;10.30;99.90;;;;;;6173829;23;20543;-80
2022/12/24 13:27:19;;;;;;;5.03;1.40;;;10.30;99.90;;;;;;6175725;23;20647;-79
2022/12/24 13:29:53;;;;;;;2.40;1.40;;;10.50;99.90;;;;;;6174901;23;20396;-79